sensor_id;sensor_type;location;lat;lon;timestamp;P1;durP1;ratioP1;P2;durP2;ratioP2
6928;SDS011;3504;52.616;13.238;2022-07-22T00:03:10;13.65;;;12.25;;
6928;SDS011;3504;52.616;13.238;2022-07-22T00:08:12;13.45;;;12.15;;
6928;SDS011;3504;52.616;13.238;2022-07-22T00:13:13;15.77;;;14.27;;
6928;SDS011;3504;52.616;13.238;2022-07-22T00:18:14;14.65;;;13.18;;
6928;SDS011;3504;52.616;13.238;2022-07-22T00:23:16;14.90;;;13.40;;
6928;SDS011;3504;52.616;13.238;2022-07-22T00:28:17;14.05;;;12.40;;
6928;SDS011;3504;52.616;13.238;2022-07-22T00:33:19;15.07;;;13.57;;
6928;SDS011;3504;52.616;13.238;2022-07-22T00:38:22;13.65;;;12.25;;
6928;SDS011;3504;52.616;13.238;2022-07-22T00:43:24;12.80;;;11.50;;
6928;SDS011;3504;52.616;13.238;2022-07-22T00:48:24;13.27;;;11.50;;
6928;SDS011;3504;52.616;13.238;2022-07-22T00:53:26;12.63;;;10.77;;
6928;SDS011;3504;52.616;13.238;2022-07-22T00:58:26;12.43;;;10.32;;
6928;SDS011;3504;52.616;13.238;2022-07-22T01:03:28;11.35;;;9.70;;
6928;SDS011;3504;52.616;13.238;2022-07-22T01:08:29;10.10;;;9.15;;
6928;SDS011;3504;52.616;13.238;2022-07-22T01:13:32;10.00;;;9.00;;
6928;SDS011;3504;52.616;13.238;2022-07-22T01:18:32;10.05;;;8.63;;
6928;SDS011;3504;52.616;13.238;2022-07-22T01:23:35;9.07;;;8.18;;
6928;SDS011;3504;52.616;13.238;2022-07-22T01:28:36;10.00;;;9.00;;
6928;SDS011;3504;52.616;13.238;2022-07-22T01:33:38;9.73;;;8.82;;
6928;SDS011;3504;52.616;13.238;2022-07-22T01:38:39;9.57;;;8.32;;
6928;SDS011;3504;52.616;13.238;2022-07-22T01:43:41;9.98;;;7.85;;
6928;SDS011;3504;52.616;13.238;2022-07-22T01:48:42;15.38;;;8.70;;
6928;SDS011;3504;52.616;13.238;2022-07-22T01:53:43;9.90;;;8.45;;
6928;SDS011;3504;52.616;13.238;2022-07-22T01:58:44;8.27;;;7.40;;
6928;SDS011;3504;52.616;13.238;2022-07-22T02:03:46;7.95;;;7.18;;
6928;SDS011;3504;52.616;13.238;2022-07-22T02:08:46;9.35;;;8.30;;
6928;SDS011;3504;52.616;13.238;2022-07-22T02:13:50;10.32;;;7.65;;
6928;SDS011;3504;52.616;13.238;2022-07-22T02:18:50;8.25;;;7.45;;
6928;SDS011;3504;52.616;13.238;2022-07-22T02:23:52;9.35;;;8.45;;
6928;SDS011;3504;52.616;13.238;2022-07-22T02:28:52;9.35;;;8.45;;
6928;SDS011;3504;52.616;13.238;2022-07-22T02:33:55;12.32;;;8.00;;
6928;SDS011;3504;52.616;13.238;2022-07-22T02:38:57;10.05;;;7.95;;
6928;SDS011;3504;52.616;13.238;2022-07-22T02:43:59;9.35;;;8.38;;
6928;SDS011;3504;52.616;13.238;2022-07-22T02:49:00;7.90;;;7.20;;
6928;SDS011;3504;52.616;13.238;2022-07-22T02:54:04;10.93;;;8.32;;
6928;SDS011;3504;52.616;13.238;2022-07-22T02:59:06;10.45;;;8.15;;
6928;SDS011;3504;52.616;13.238;2022-07-22T03:04:08;8.98;;;7.93;;
6928;SDS011;3504;52.616;13.238;2022-07-22T03:09:11;10.15;;;9.20;;
6928;SDS011;3504;52.616;13.238;2022-07-22T03:14:16;11.15;;;8.13;;
6928;SDS011;3504;52.616;13.238;2022-07-22T03:19:18;8.98;;;8.23;;
6928;SDS011;3504;52.616;13.238;2022-07-22T03:24:24;11.65;;;9.13;;
6928;SDS011;3504;52.616;13.238;2022-07-22T03:29:25;10.50;;;9.48;;
6928;SDS011;3504;52.616;13.238;2022-07-22T03:34:27;11.63;;;10.32;;
6928;SDS011;3504;52.616;13.238;2022-07-22T03:39:36;11.70;;;10.45;;
6928;SDS011;3504;52.616;13.238;2022-07-22T03:44:38;15.52;;;10.32;;
6928;SDS011;3504;52.616;13.238;2022-07-22T03:49:39;12.18;;;10.88;;
6928;SDS011;3504;52.616;13.238;2022-07-22T03:54:43;12.02;;;10.80;;
6928;SDS011;3504;52.616;13.238;2022-07-22T03:59:44;11.88;;;10.40;;
6928;SDS011;3504;52.616;13.238;2022-07-22T04:04:46;13.68;;;11.25;;
6928;SDS011;3504;52.616;13.238;2022-07-22T04:09:47;12.02;;;10.82;;
6928;SDS011;3504;52.616;13.238;2022-07-22T04:14:49;12.77;;;11.48;;
6928;SDS011;3504;52.616;13.238;2022-07-22T04:19:49;13.13;;;11.77;;
6928;SDS011;3504;52.616;13.238;2022-07-22T04:24:59;14.55;;;13.00;;
6928;SDS011;3504;52.616;13.238;2022-07-22T04:30:00;13.95;;;12.55;;
6928;SDS011;3504;52.616;13.238;2022-07-22T04:35:02;14.73;;;13.23;;
6928;SDS011;3504;52.616;13.238;2022-07-22T04:40:03;14.20;;;12.77;;
6928;SDS011;3504;52.616;13.238;2022-07-22T04:45:06;14.85;;;12.80;;
6928;SDS011;3504;52.616;13.238;2022-07-22T04:50:07;14.43;;;13.02;;
6928;SDS011;3504;52.616;13.238;2022-07-22T04:55:11;15.73;;;14.05;;
6928;SDS011;3504;52.616;13.238;2022-07-22T05:00:12;17.13;;;15.02;;
6928;SDS011;3504;52.616;13.238;2022-07-22T05:05:23;15.88;;;14.13;;
6928;SDS011;3504;52.616;13.238;2022-07-22T05:10:25;17.17;;;13.65;;
6928;SDS011;3504;52.616;13.238;2022-07-22T05:15:29;16.42;;;13.38;;
6928;SDS011;3504;52.616;13.238;2022-07-22T05:20:29;17.58;;;15.13;;
6928;SDS011;3504;52.616;13.238;2022-07-22T05:25:31;18.48;;;15.93;;
6928;SDS011;3504;52.616;13.238;2022-07-22T05:30:32;17.40;;;15.57;;
6928;SDS011;3504;52.616;13.238;2022-07-22T05:35:34;22.50;;;18.33;;
6928;SDS011;3504;52.616;13.238;2022-07-22T05:40:35;14.98;;;13.48;;
6928;SDS011;3504;52.616;13.238;2022-07-22T05:45:38;15.63;;;14.07;;
6928;SDS011;3504;52.616;13.238;2022-07-22T05:50:40;14.23;;;12.82;;
6928;SDS011;3504;52.616;13.238;2022-07-22T05:55:42;15.13;;;13.68;;
6928;SDS011;3504;52.616;13.238;2022-07-22T06:00:43;16.73;;;14.93;;
6928;SDS011;3504;52.616;13.238;2022-07-22T06:05:45;15.98;;;14.38;;
6928;SDS011;3504;52.616;13.238;2022-07-22T06:10:46;15.75;;;14.18;;
6928;SDS011;3504;52.616;13.238;2022-07-22T06:15:48;16.17;;;14.52;;
6928;SDS011;3504;52.616;13.238;2022-07-22T06:20:49;15.48;;;13.98;;
6928;SDS011;3504;52.616;13.238;2022-07-22T06:25:52;15.93;;;14.13;;
6928;SDS011;3504;52.616;13.238;2022-07-22T06:30:59;15.90;;;14.40;;
6928;SDS011;3504;52.616;13.238;2022-07-22T06:36:02;15.13;;;13.68;;
6928;SDS011;3504;52.616;13.238;2022-07-22T06:41:05;15.40;;;14.00;;
6928;SDS011;3504;52.616;13.238;2022-07-22T06:46:21;14.75;;;13.23;;
6928;SDS011;3504;52.616;13.238;2022-07-22T06:51:26;14.93;;;13.50;;
6928;SDS011;3504;52.616;13.238;2022-07-22T06:56:29;15.77;;;14.27;;
6928;SDS011;3504;52.616;13.238;2022-07-22T07:01:30;14.60;;;13.18;;
6928;SDS011;3504;52.616;13.238;2022-07-22T07:06:35;13.15;;;11.75;;
6928;SDS011;3504;52.616;13.238;2022-07-22T07:11:47;12.43;;;11.13;;
6928;SDS011;3504;52.616;13.238;2022-07-22T07:17:02;12.60;;;11.40;;
6928;SDS011;3504;52.616;13.238;2022-07-22T07:22:02;11.27;;;10.23;;
6928;SDS011;3504;52.616;13.238;2022-07-22T07:27:04;10.35;;;9.35;;
6928;SDS011;3504;52.616;13.238;2022-07-22T07:32:06;10.48;;;9.25;;
6928;SDS011;3504;52.616;13.238;2022-07-22T07:37:07;9.50;;;8.60;;
6928;SDS011;3504;52.616;13.238;2022-07-22T07:42:08;8.15;;;7.45;;
6928;SDS011;3504;52.616;13.238;2022-07-22T07:47:09;9.10;;;8.30;;
6928;SDS011;3504;52.616;13.238;2022-07-22T07:52:11;8.70;;;7.90;;
6928;SDS011;3504;52.616;13.238;2022-07-22T07:57:15;9.82;;;8.93;;
6928;SDS011;3504;52.616;13.238;2022-07-22T08:02:16;9.02;;;8.25;;
6928;SDS011;3504;52.616;13.238;2022-07-22T08:07:18;10.85;;;9.75;;
6928;SDS011;3504;52.616;13.238;2022-07-22T08:12:20;13.13;;;10.45;;
6928;SDS011;3504;52.616;13.238;2022-07-22T08:17:33;7.25;;;6.63;;
6928;SDS011;3504;52.616;13.238;2022-07-22T08:22:34;8.73;;;7.55;;
6928;SDS011;3504;52.616;13.238;2022-07-22T08:27:36;6.60;;;6.10;;
6928;SDS011;3504;52.616;13.238;2022-07-22T08:32:37;8.40;;;7.55;;
6928;SDS011;3504;52.616;13.238;2022-07-22T08:37:39;9.60;;;8.73;;
6928;SDS011;3504;52.616;13.238;2022-07-22T08:42:40;8.82;;;7.97;;
6928;SDS011;3504;52.616;13.238;2022-07-22T08:47:46;9.10;;;8.30;;
6928;SDS011;3504;52.616;13.238;2022-07-22T08:53:11;8.70;;;7.90;;
6928;SDS011;3504;52.616;13.238;2022-07-22T08:58:16;9.18;;;8.27;;
6928;SDS011;3504;52.616;13.238;2022-07-22T09:03:18;9.05;;;8.23;;
6928;SDS011;3504;52.616;13.238;2022-07-22T09:08:30;7.72;;;7.03;;
6928;SDS011;3504;52.616;13.238;2022-07-22T09:14:11;8.35;;;7.55;;
6928;SDS011;3504;52.616;13.238;2022-07-22T09:19:30;7.50;;;6.78;;
6928;SDS011;3504;52.616;13.238;2022-07-22T09:24:59;8.38;;;6.70;;
6928;SDS011;3504;52.616;13.238;2022-07-22T09:31:00;6.18;;;5.60;;
6928;SDS011;3504;52.616;13.238;2022-07-22T09:36:05;7.28;;;5.03;;
6928;SDS011;3504;52.616;13.238;2022-07-22T09:41:09;3.83;;;3.53;;
6928;SDS011;3504;52.616;13.238;2022-07-22T09:46:10;2.80;;;2.60;;
6928;SDS011;3504;52.616;13.238;2022-07-22T09:51:31;3.00;;;2.50;;
6928;SDS011;3504;52.616;13.238;2022-07-22T09:56:54;3.55;;;3.25;;
6928;SDS011;3504;52.616;13.238;2022-07-22T10:01:58;3.25;;;2.83;;
6928;SDS011;3504;52.616;13.238;2022-07-22T10:07:00;3.60;;;3.40;;
6928;SDS011;3504;52.616;13.238;2022-07-22T10:12:08;3.17;;;2.97;;
6928;SDS011;3504;52.616;13.238;2022-07-22T10:17:12;3.42;;;3.22;;
6928;SDS011;3504;52.616;13.238;2022-07-22T10:27:48;4.05;;;3.75;;
6928;SDS011;3504;52.616;13.238;2022-07-22T10:38:17;6.38;;;5.85;;
6928;SDS011;3504;52.616;13.238;2022-07-22T10:43:29;6.43;;;5.82;;
6928;SDS011;3504;52.616;13.238;2022-07-22T10:48:45;10.63;;;8.10;;
6928;SDS011;3504;52.616;13.238;2022-07-22T10:58:55;9.27;;;8.48;;
6928;SDS011;3504;52.616;13.238;2022-07-22T11:04:17;7.78;;;7.13;;
6928;SDS011;3504;52.616;13.238;2022-07-22T11:09:21;7.18;;;6.45;;
6928;SDS011;3504;52.616;13.238;2022-07-22T11:14:32;6.40;;;5.80;;
6928;SDS011;3504;52.616;13.238;2022-07-22T11:19:35;5.32;;;4.93;;
6928;SDS011;3504;52.616;13.238;2022-07-22T11:24:39;4.95;;;4.38;;
6928;SDS011;3504;52.616;13.238;2022-07-22T11:29:41;5.45;;;4.95;;
6928;SDS011;3504;52.616;13.238;2022-07-22T11:34:48;4.78;;;4.38;;
6928;SDS011;3504;52.616;13.238;2022-07-22T11:39:49;5.68;;;4.53;;
6928;SDS011;3504;52.616;13.238;2022-07-22T11:44:52;5.53;;;5.03;;
6928;SDS011;3504;52.616;13.238;2022-07-22T11:49:52;5.28;;;4.78;;
6928;SDS011;3504;52.616;13.238;2022-07-22T11:54:54;5.43;;;5.00;;
6928;SDS011;3504;52.616;13.238;2022-07-22T11:59:55;4.50;;;4.10;;
6928;SDS011;3504;52.616;13.238;2022-07-22T12:05:13;3.97;;;3.67;;
6928;SDS011;3504;52.616;13.238;2022-07-22T12:10:14;4.30;;;3.97;;
6928;SDS011;3504;52.616;13.238;2022-07-22T12:15:18;4.00;;;3.70;;
6928;SDS011;3504;52.616;13.238;2022-07-22T12:20:24;3.78;;;3.50;;
6928;SDS011;3504;52.616;13.238;2022-07-22T12:25:26;3.20;;;3.00;;
6928;SDS011;3504;52.616;13.238;2022-07-22T12:30:27;5.70;;;2.88;;
6928;SDS011;3504;52.616;13.238;2022-07-22T12:35:28;2.78;;;2.58;;
6928;SDS011;3504;52.616;13.238;2022-07-22T12:40:29;3.30;;;2.55;;
6928;SDS011;3504;52.616;13.238;2022-07-22T12:45:31;2.78;;;2.58;;
6928;SDS011;3504;52.616;13.238;2022-07-22T12:50:35;2.63;;;2.42;;
6928;SDS011;3504;52.616;13.238;2022-07-22T12:55:48;2.35;;;2.15;;
6928;SDS011;3504;52.616;13.238;2022-07-22T13:00:52;2.45;;;2.25;;
6928;SDS011;3504;52.616;13.238;2022-07-22T13:05:57;2.50;;;2.30;;
6928;SDS011;3504;52.616;13.238;2022-07-22T13:10:59;1.88;;;1.77;;
6928;SDS011;3504;52.616;13.238;2022-07-22T13:16:02;2.30;;;2.15;;
6928;SDS011;3504;52.616;13.238;2022-07-22T13:21:02;2.10;;;2.00;;
6928;SDS011;3504;52.616;13.238;2022-07-22T13:26:04;2.60;;;1.75;;
6928;SDS011;3504;52.616;13.238;2022-07-22T13:31:05;1.98;;;1.88;;
6928;SDS011;3504;52.616;13.238;2022-07-22T13:36:07;2.22;;;1.77;;
6928;SDS011;3504;52.616;13.238;2022-07-22T13:41:07;2.00;;;1.90;;
6928;SDS011;3504;52.616;13.238;2022-07-22T13:46:18;3.28;;;2.00;;
6928;SDS011;3504;52.616;13.238;2022-07-22T13:51:18;2.25;;;2.05;;
6928;SDS011;3504;52.616;13.238;2022-07-22T13:56:20;2.10;;;1.88;;
6928;SDS011;3504;52.616;13.238;2022-07-22T14:01:21;1.80;;;1.70;;
6928;SDS011;3504;52.616;13.238;2022-07-22T14:06:23;4.18;;;2.10;;
6928;SDS011;3504;52.616;13.238;2022-07-22T14:11:24;2.10;;;1.60;;
6928;SDS011;3504;52.616;13.238;2022-07-22T14:16:25;2.78;;;2.00;;
6928;SDS011;3504;52.616;13.238;2022-07-22T14:21:35;3.15;;;2.00;;
6928;SDS011;3504;52.616;13.238;2022-07-22T14:26:40;1.90;;;1.80;;
6928;SDS011;3504;52.616;13.238;2022-07-22T14:31:42;2.58;;;1.80;;
6928;SDS011;3504;52.616;13.238;2022-07-22T14:36:44;2.20;;;2.00;;
6928;SDS011;3504;52.616;13.238;2022-07-22T14:41:45;2.15;;;1.95;;
6928;SDS011;3504;52.616;13.238;2022-07-22T14:46:47;2.03;;;1.88;;
6928;SDS011;3504;52.616;13.238;2022-07-22T14:51:48;2.10;;;2.00;;
6928;SDS011;3504;52.616;13.238;2022-07-22T14:56:50;4.72;;;1.75;;
6928;SDS011;3504;52.616;13.238;2022-07-22T15:01:50;2.40;;;2.20;;
6928;SDS011;3504;52.616;13.238;2022-07-22T15:06:55;2.60;;;2.25;;
6928;SDS011;3504;52.616;13.238;2022-07-22T15:11:56;3.40;;;2.00;;
6928;SDS011;3504;52.616;13.238;2022-07-22T15:16:57;2.20;;;2.00;;
6928;SDS011;3504;52.616;13.238;2022-07-22T15:21:58;2.97;;;2.15;;
6928;SDS011;3504;52.616;13.238;2022-07-22T15:26:59;2.47;;;2.28;;
6928;SDS011;3504;52.616;13.238;2022-07-22T15:32:00;2.45;;;2.25;;
6928;SDS011;3504;52.616;13.238;2022-07-22T15:37:02;3.20;;;2.25;;
6928;SDS011;3504;52.616;13.238;2022-07-22T15:42:03;3.05;;;2.50;;
6928;SDS011;3504;52.616;13.238;2022-07-22T15:47:05;2.50;;;2.30;;
6928;SDS011;3504;52.616;13.238;2022-07-22T15:52:05;2.60;;;2.40;;
6928;SDS011;3504;52.616;13.238;2022-07-22T15:57:07;3.15;;;2.35;;
6928;SDS011;3504;52.616;13.238;2022-07-22T16:02:27;2.90;;;2.30;;
6928;SDS011;3504;52.616;13.238;2022-07-22T16:07:28;4.43;;;2.65;;
6928;SDS011;3504;52.616;13.238;2022-07-22T16:12:29;2.60;;;2.40;;
6928;SDS011;3504;52.616;13.238;2022-07-22T16:17:31;2.70;;;2.50;;
6928;SDS011;3504;52.616;13.238;2022-07-22T16:22:31;2.70;;;2.50;;
6928;SDS011;3504;52.616;13.238;2022-07-22T16:27:33;3.25;;;3.00;;
6928;SDS011;3504;52.616;13.238;2022-07-22T16:32:34;2.90;;;2.67;;
6928;SDS011;3504;52.616;13.238;2022-07-22T16:37:36;2.80;;;2.60;;
6928;SDS011;3504;52.616;13.238;2022-07-22T16:42:36;6.25;;;2.80;;
6928;SDS011;3504;52.616;13.238;2022-07-22T16:47:38;3.05;;;2.85;;
6928;SDS011;3504;52.616;13.238;2022-07-22T16:52:38;2.65;;;2.45;;
6928;SDS011;3504;52.616;13.238;2022-07-22T16:57:40;3.33;;;3.13;;
6928;SDS011;3504;52.616;13.238;2022-07-22T17:02:41;3.60;;;3.30;;
6928;SDS011;3504;52.616;13.238;2022-07-22T17:07:43;3.22;;;2.83;;
6928;SDS011;3504;52.616;13.238;2022-07-22T17:12:44;3.90;;;3.42;;
6928;SDS011;3504;52.616;13.238;2022-07-22T17:17:47;6.97;;;3.28;;
6928;SDS011;3504;52.616;13.238;2022-07-22T17:22:47;3.97;;;3.47;;
6928;SDS011;3504;52.616;13.238;2022-07-22T17:27:51;4.65;;;3.75;;
6928;SDS011;3504;52.616;13.238;2022-07-22T17:32:52;4.47;;;3.80;;
6928;SDS011;3504;52.616;13.238;2022-07-22T17:37:54;5.22;;;3.95;;
6928;SDS011;3504;52.616;13.238;2022-07-22T17:42:54;4.30;;;3.88;;
6928;SDS011;3504;52.616;13.238;2022-07-22T17:47:56;4.43;;;3.63;;
6928;SDS011;3504;52.616;13.238;2022-07-22T17:52:57;7.78;;;4.55;;
6928;SDS011;3504;52.616;13.238;2022-07-22T17:57:59;4.95;;;4.55;;
6928;SDS011;3504;52.616;13.238;2022-07-22T18:03:01;5.25;;;4.50;;
6928;SDS011;3504;52.616;13.238;2022-07-22T18:08:04;4.82;;;4.40;;
6928;SDS011;3504;52.616;13.238;2022-07-22T18:13:04;4.85;;;4.30;;
6928;SDS011;3504;52.616;13.238;2022-07-22T18:18:06;5.45;;;4.93;;
6928;SDS011;3504;52.616;13.238;2022-07-22T18:23:06;4.55;;;4.15;;
6928;SDS011;3504;52.616;13.238;2022-07-22T18:28:08;6.55;;;5.07;;
6928;SDS011;3504;52.616;13.238;2022-07-22T18:33:09;6.43;;;5.63;;
6928;SDS011;3504;52.616;13.238;2022-07-22T18:38:11;9.30;;;7.20;;
6928;SDS011;3504;52.616;13.238;2022-07-22T18:43:11;17.10;;;10.63;;
6928;SDS011;3504;52.616;13.238;2022-07-22T18:48:14;11.00;;;7.15;;
6928;SDS011;3504;52.616;13.238;2022-07-22T18:53:15;11.48;;;7.18;;
6928;SDS011;3504;52.616;13.238;2022-07-22T18:58:17;6.30;;;5.70;;
6928;SDS011;3504;52.616;13.238;2022-07-22T19:03:17;5.30;;;4.65;;
6928;SDS011;3504;52.616;13.238;2022-07-22T19:08:19;6.28;;;4.93;;
6928;SDS011;3504;52.616;13.238;2022-07-22T19:13:20;5.72;;;5.13;;
6928;SDS011;3504;52.616;13.238;2022-07-22T19:18:22;6.80;;;5.05;;
6928;SDS011;3504;52.616;13.238;2022-07-22T19:23:23;5.22;;;4.72;;
6928;SDS011;3504;52.616;13.238;2022-07-22T19:28:25;5.68;;;4.45;;
6928;SDS011;3504;52.616;13.238;2022-07-22T19:33:26;5.43;;;4.93;;
6928;SDS011;3504;52.616;13.238;2022-07-22T19:38:28;6.85;;;5.43;;
6928;SDS011;3504;52.616;13.238;2022-07-22T19:43:28;5.93;;;5.40;;
6928;SDS011;3504;52.616;13.238;2022-07-22T19:48:29;6.25;;;5.50;;
6928;SDS011;3504;52.616;13.238;2022-07-22T19:53:29;6.40;;;5.75;;
6928;SDS011;3504;52.616;13.238;2022-07-22T19:58:31;9.38;;;5.53;;
6928;SDS011;3504;52.616;13.238;2022-07-22T20:03:32;5.97;;;5.18;;
6928;SDS011;3504;52.616;13.238;2022-07-22T20:08:33;7.30;;;5.90;;
6928;SDS011;3504;52.616;13.238;2022-07-22T20:13:34;7.47;;;5.72;;
6928;SDS011;3504;52.616;13.238;2022-07-22T20:18:36;8.07;;;5.93;;
6928;SDS011;3504;52.616;13.238;2022-07-22T20:23:36;7.53;;;6.20;;
6928;SDS011;3504;52.616;13.238;2022-07-22T20:28:38;7.68;;;6.93;;
6928;SDS011;3504;52.616;13.238;2022-07-22T20:33:39;7.18;;;6.45;;
6928;SDS011;3504;52.616;13.238;2022-07-22T20:38:40;7.20;;;6.10;;
6928;SDS011;3504;52.616;13.238;2022-07-22T20:43:41;7.00;;;6.30;;
6928;SDS011;3504;52.616;13.238;2022-07-22T20:48:41;7.85;;;6.43;;
6928;SDS011;3504;52.616;13.238;2022-07-22T20:53:42;7.75;;;6.78;;
6928;SDS011;3504;52.616;13.238;2022-07-22T20:58:44;8.52;;;6.80;;
6928;SDS011;3504;52.616;13.238;2022-07-22T21:03:45;8.02;;;7.25;;
6928;SDS011;3504;52.616;13.238;2022-07-22T21:08:46;7.97;;;6.95;;
6928;SDS011;3504;52.616;13.238;2022-07-22T21:13:47;10.60;;;7.03;;
6928;SDS011;3504;52.616;13.238;2022-07-22T21:18:50;7.90;;;7.15;;
6928;SDS011;3504;52.616;13.238;2022-07-22T21:23:50;9.40;;;7.47;;
6928;SDS011;3504;52.616;13.238;2022-07-22T21:28:52;8.65;;;7.20;;
6928;SDS011;3504;52.616;13.238;2022-07-22T21:33:53;8.98;;;7.50;;
6928;SDS011;3504;52.616;13.238;2022-07-22T21:38:55;9.48;;;7.88;;
6928;SDS011;3504;52.616;13.238;2022-07-22T21:43:55;7.95;;;7.15;;
6928;SDS011;3504;52.616;13.238;2022-07-22T21:48:56;7.47;;;6.57;;
6928;SDS011;3504;52.616;13.238;2022-07-22T21:53:57;9.07;;;7.40;;
6928;SDS011;3504;52.616;13.238;2022-07-22T21:58:59;9.48;;;8.40;;
6928;SDS011;3504;52.616;13.238;2022-07-22T22:03:59;9.57;;;7.63;;
6928;SDS011;3504;52.616;13.238;2022-07-22T22:09:02;8.45;;;7.60;;
6928;SDS011;3504;52.616;13.238;2022-07-22T22:14:03;14.15;;;8.27;;
6928;SDS011;3504;52.616;13.238;2022-07-22T22:19:05;8.82;;;7.93;;
6928;SDS011;3504;52.616;13.238;2022-07-22T22:24:07;8.80;;;7.90;;
6928;SDS011;3504;52.616;13.238;2022-07-22T22:29:09;8.20;;;7.40;;
6928;SDS011;3504;52.616;13.238;2022-07-22T22:34:10;8.35;;;7.55;;
6928;SDS011;3504;52.616;13.238;2022-07-22T22:39:11;8.63;;;7.72;;
6928;SDS011;3504;52.616;13.238;2022-07-22T22:44:12;9.65;;;7.90;;
6928;SDS011;3504;52.616;13.238;2022-07-22T22:49:12;8.75;;;7.18;;
6928;SDS011;3504;52.616;13.238;2022-07-22T22:54:13;9.07;;;7.72;;
6928;SDS011;3504;52.616;13.238;2022-07-22T22:59:14;9.25;;;7.57;;
6928;SDS011;3504;52.616;13.238;2022-07-22T23:04:15;9.40;;;8.05;;
6928;SDS011;3504;52.616;13.238;2022-07-22T23:09:17;9.10;;;8.15;;
6928;SDS011;3504;52.616;13.238;2022-07-22T23:14:17;9.23;;;7.78;;
6928;SDS011;3504;52.616;13.238;2022-07-22T23:19:19;8.82;;;7.93;;
6928;SDS011;3504;52.616;13.238;2022-07-22T23:24:19;8.63;;;7.73;;
6928;SDS011;3504;52.616;13.238;2022-07-22T23:29:21;10.75;;;8.57;;
6928;SDS011;3504;52.616;13.238;2022-07-22T23:34:22;10.43;;;7.90;;
6928;SDS011;3504;52.616;13.238;2022-07-22T23:39:24;9.83;;;8.13;;
6928;SDS011;3504;52.616;13.238;2022-07-22T23:44:24;9.43;;;8.43;;
6928;SDS011;3504;52.616;13.238;2022-07-22T23:49:25;9.17;;;7.97;;
6928;SDS011;3504;52.616;13.238;2022-07-22T23:54:25;9.67;;;8.43;;
6928;SDS011;3504;52.616;13.238;2022-07-22T23:59:27;8.43;;;7.10;;
